sensor_id;sensor_type;location;lat;lon;timestamp;pressure;altitude;pressure_sealevel;temperature;humidity
76460;BME280;65299;46.084;18.762;2023-08-30T00:00:33;99444.06;;;18.53;84.82
76460;BME280;65299;46.084;18.762;2023-08-30T00:03:33;99439.75;;;18.15;85.52
76460;BME280;65299;46.084;18.762;2023-08-30T00:06:34;99440.84;;;18.14;86.09
76460;BME280;65299;46.084;18.762;2023-08-30T00:09:34;99446.22;;;18.27;85.82
76460;BME280;65299;46.084;18.762;2023-08-30T00:12:36;99443.25;;;18.28;85.69
76460;BME280;65299;46.084;18.762;2023-08-30T00:15:36;99447.03;;;18.27;85.53
76460;BME280;65299;46.084;18.762;2023-08-30T00:18:37;99436.06;;;18.20;85.48
76460;BME280;65299;46.084;18.762;2023-08-30T00:21:37;99448.56;;;18.49;84.40
76460;BME280;65299;46.084;18.762;2023-08-30T00:24:38;99442.47;;;18.88;82.68
76460;BME280;65299;46.084;18.762;2023-08-30T00:27:38;99446.06;;;18.68;83.57
76460;BME280;65299;46.084;18.762;2023-08-30T00:30:39;99447.41;;;18.50;84.27
76460;BME280;65299;46.084;18.762;2023-08-30T00:33:39;99442.03;;;18.50;84.91
76460;BME280;65299;46.084;18.762;2023-08-30T00:36:40;99441.38;;;18.77;83.87
76460;BME280;65299;46.084;18.762;2023-08-30T00:39:40;99441.16;;;18.70;82.19
76460;BME280;65299;46.084;18.762;2023-08-30T00:42:40;99437.06;;;18.28;84.37
76460;BME280;65299;46.084;18.762;2023-08-30T00:45:41;99437.91;;;18.52;83.57
76460;BME280;65299;46.084;18.762;2023-08-30T00:48:42;99436.88;;;18.45;84.54
76460;BME280;65299;46.084;18.762;2023-08-30T00:51:42;99426.53;;;18.22;85.04
76460;BME280;65299;46.084;18.762;2023-08-30T00:54:42;99434.94;;;18.21;85.20
76460;BME280;65299;46.084;18.762;2023-08-30T00:57:43;99438.81;;;17.99;85.58
76460;BME280;65299;46.084;18.762;2023-08-30T01:00:44;99450.78;;;18.02;85.94
76460;BME280;65299;46.084;18.762;2023-08-30T01:03:44;99445.75;;;18.00;86.32
76460;BME280;65299;46.084;18.762;2023-08-30T01:06:44;99446.06;;;17.99;85.73
76460;BME280;65299;46.084;18.762;2023-08-30T01:09:45;99446.22;;;17.82;86.80
76460;BME280;65299;46.084;18.762;2023-08-30T01:12:48;99444.34;;;17.82;86.24
76460;BME280;65299;46.084;18.762;2023-08-30T01:15:51;99447.31;;;17.69;87.10
76460;BME280;65299;46.084;18.762;2023-08-30T01:18:56;99452.75;;;17.60;87.40
76460;BME280;65299;46.084;18.762;2023-08-30T01:25:24;99450.78;;;17.49;88.18
76460;BME280;65299;46.084;18.762;2023-08-30T01:28:30;99460.41;;;17.50;88.25
76460;BME280;65299;46.084;18.762;2023-08-30T01:31:32;99464.97;;;17.70;87.09
76460;BME280;65299;46.084;18.762;2023-08-30T01:34:34;99465.69;;;17.79;86.63
76460;BME280;65299;46.084;18.762;2023-08-30T01:37:36;99455.50;;;17.72;86.76
76460;BME280;65299;46.084;18.762;2023-08-30T01:40:41;99455.03;;;17.70;86.96
76460;BME280;65299;46.084;18.762;2023-08-30T01:43:42;99456.22;;;17.61;87.68
76460;BME280;65299;46.084;18.762;2023-08-30T01:46:44;99450.97;;;17.43;88.66
76460;BME280;65299;46.084;18.762;2023-08-30T01:49:46;99450.63;;;17.45;88.49
76460;BME280;65299;46.084;18.762;2023-08-30T01:52:47;99453.06;;;17.38;89.10
76460;BME280;65299;46.084;18.762;2023-08-30T01:55:48;99458.44;;;17.38;89.34
76460;BME280;65299;46.084;18.762;2023-08-30T01:58:49;99465.97;;;17.24;89.66
76460;BME280;65299;46.084;18.762;2023-08-30T02:01:51;99471.19;;;17.20;90.26
76460;BME280;65299;46.084;18.762;2023-08-30T02:04:51;99472.25;;;17.28;89.44
76460;BME280;65299;46.084;18.762;2023-08-30T02:07:58;99473.34;;;17.27;89.93
76460;BME280;65299;46.084;18.762;2023-08-30T02:11:04;99483.94;;;17.23;89.72
76460;BME280;65299;46.084;18.762;2023-08-30T02:14:10;99489.25;;;17.32;89.72
76460;BME280;65299;46.084;18.762;2023-08-30T02:17:14;99496.84;;;17.30;89.45
76460;BME280;65299;46.084;18.762;2023-08-30T02:20:14;99493.09;;;17.22;89.67
76460;BME280;65299;46.084;18.762;2023-08-30T02:23:15;99498.59;;;17.26;89.84
76460;BME280;65299;46.084;18.762;2023-08-30T02:26:18;99495.06;;;17.34;89.31
76460;BME280;65299;46.084;18.762;2023-08-30T02:29:19;99494.66;;;17.23;89.28
76460;BME280;65299;46.084;18.762;2023-08-30T02:32:19;99499.53;;;17.30;89.10
76460;BME280;65299;46.084;18.762;2023-08-30T02:35:21;99482.69;;;17.41;89.15
76460;BME280;65299;46.084;18.762;2023-08-30T02:38:21;99473.09;;;17.20;88.91
76460;BME280;65299;46.084;18.762;2023-08-30T02:41:22;99470.03;;;17.01;90.27
76460;BME280;65299;46.084;18.762;2023-08-30T02:44:22;99480.81;;;16.92;90.30
76460;BME280;65299;46.084;18.762;2023-08-30T02:47:22;99480.75;;;17.01;90.10
76460;BME280;65299;46.084;18.762;2023-08-30T02:50:23;99485.88;;;16.94;89.29
76460;BME280;65299;46.084;18.762;2023-08-30T02:53:24;99487.16;;;16.88;89.30
76460;BME280;65299;46.084;18.762;2023-08-30T02:56:24;99494.66;;;16.94;88.65
76460;BME280;65299;46.084;18.762;2023-08-30T02:59:25;99500.88;;;16.86;88.60
76460;BME280;65299;46.084;18.762;2023-08-30T03:02:26;99514.59;;;16.85;88.50
76460;BME280;65299;46.084;18.762;2023-08-30T03:05:26;99512.56;;;16.82;88.14
76460;BME280;65299;46.084;18.762;2023-08-30T03:08:26;99522.84;;;16.80;88.93
76460;BME280;65299;46.084;18.762;2023-08-30T03:11:27;99527.59;;;16.66;88.62
76460;BME280;65299;46.084;18.762;2023-08-30T03:14:28;99529.78;;;16.72;88.68
76460;BME280;65299;46.084;18.762;2023-08-30T03:17:28;99520.91;;;16.80;88.23
76460;BME280;65299;46.084;18.762;2023-08-30T03:20:29;99512.38;;;16.87;87.20
76460;BME280;65299;46.084;18.762;2023-08-30T03:23:30;99510.50;;;16.87;88.34
76460;BME280;65299;46.084;18.762;2023-08-30T03:26:32;99509.22;;;16.85;87.39
76460;BME280;65299;46.084;18.762;2023-08-30T03:29:32;99508.63;;;16.79;87.42
76460;BME280;65299;46.084;18.762;2023-08-30T03:32:32;99513.22;;;16.70;88.01
76460;BME280;65299;46.084;18.762;2023-08-30T03:35:36;99508.16;;;16.77;88.10
76460;BME280;65299;46.084;18.762;2023-08-30T03:38:37;99506.69;;;16.59;88.36
76460;BME280;65299;46.084;18.762;2023-08-30T03:41:37;99497.66;;;16.64;87.95
76460;BME280;65299;46.084;18.762;2023-08-30T03:44:38;99505.22;;;16.62;87.72
76460;BME280;65299;46.084;18.762;2023-08-30T03:47:39;99512.16;;;16.63;87.64
76460;BME280;65299;46.084;18.762;2023-08-30T03:50:39;99512.59;;;16.73;87.00
76460;BME280;65299;46.084;18.762;2023-08-30T03:53:40;99524.06;;;16.82;86.85
76460;BME280;65299;46.084;18.762;2023-08-30T03:56:40;99528.19;;;17.09;85.97
76460;BME280;65299;46.084;18.762;2023-08-30T03:59:40;99538.00;;;17.05;85.12
76460;BME280;65299;46.084;18.762;2023-08-30T04:02:41;99545.19;;;17.13;84.95
76460;BME280;65299;46.084;18.762;2023-08-30T04:05:41;99544.38;;;17.21;84.28
76460;BME280;65299;46.084;18.762;2023-08-30T04:08:42;99550.97;;;17.23;84.93
76460;BME280;65299;46.084;18.762;2023-08-30T04:11:43;99548.34;;;17.15;84.45
76460;BME280;65299;46.084;18.762;2023-08-30T04:14:44;99545.75;;;16.98;85.32
76460;BME280;65299;46.084;18.762;2023-08-30T04:17:44;99542.72;;;17.08;85.62
76460;BME280;65299;46.084;18.762;2023-08-30T04:20:45;99544.47;;;17.04;85.75
76460;BME280;65299;46.084;18.762;2023-08-30T04:23:46;99546.88;;;16.88;86.13
76460;BME280;65299;46.084;18.762;2023-08-30T04:26:46;99545.19;;;16.84;86.16
76460;BME280;65299;46.084;18.762;2023-08-30T04:29:52;99540.59;;;16.84;86.25
76460;BME280;65299;46.084;18.762;2023-08-30T04:32:52;99535.66;;;16.95;86.29
76460;BME280;65299;46.084;18.762;2023-08-30T04:35:54;99538.06;;;17.17;84.91
76460;BME280;65299;46.084;18.762;2023-08-30T04:38:54;99545.63;;;17.23;84.73
76460;BME280;65299;46.084;18.762;2023-08-30T04:41:55;99546.44;;;17.15;84.34
76460;BME280;65299;46.084;18.762;2023-08-30T04:44:56;99547.22;;;17.24;84.65
76460;BME280;65299;46.084;18.762;2023-08-30T04:47:59;99554.72;;;17.31;84.42
76460;BME280;65299;46.084;18.762;2023-08-30T04:51:03;99550.94;;;17.32;84.08
76460;BME280;65299;46.084;18.762;2023-08-30T04:54:04;99553.53;;;17.20;84.95
76460;BME280;65299;46.084;18.762;2023-08-30T04:57:05;99554.50;;;17.15;84.95
76460;BME280;65299;46.084;18.762;2023-08-30T05:00:06;99550.09;;;17.11;85.34
76460;BME280;65299;46.084;18.762;2023-08-30T05:03:06;99547.72;;;17.18;85.26
76460;BME280;65299;46.084;18.762;2023-08-30T05:06:07;99549.47;;;17.14;85.36
76460;BME280;65299;46.084;18.762;2023-08-30T05:09:07;99551.34;;;17.42;84.32
76460;BME280;65299;46.084;18.762;2023-08-30T05:12:08;99545.91;;;17.30;84.72
76460;BME280;65299;46.084;18.762;2023-08-30T05:15:08;99544.72;;;17.69;83.05
76460;BME280;65299;46.084;18.762;2023-08-30T05:18:09;99546.69;;;17.81;82.63
76460;BME280;65299;46.084;18.762;2023-08-30T05:21:09;99543.91;;;17.48;82.89
76460;BME280;65299;46.084;18.762;2023-08-30T05:24:10;99539.78;;;17.21;84.36
76460;BME280;65299;46.084;18.762;2023-08-30T05:27:10;99545.25;;;17.63;83.25
76460;BME280;65299;46.084;18.762;2023-08-30T05:30:12;99549.19;;;17.65;83.16
76460;BME280;65299;46.084;18.762;2023-08-30T05:33:12;99544.44;;;17.62;82.99
76460;BME280;65299;46.084;18.762;2023-08-30T05:36:13;99550.00;;;17.78;82.60
76460;BME280;65299;46.084;18.762;2023-08-30T05:39:13;99549.03;;;17.62;83.19
76460;BME280;65299;46.084;18.762;2023-08-30T05:42:14;99552.38;;;17.79;82.93
76460;BME280;65299;46.084;18.762;2023-08-30T05:45:15;99557.69;;;18.20;81.35
76460;BME280;65299;46.084;18.762;2023-08-30T05:48:15;99558.53;;;18.33;80.63
76460;BME280;65299;46.084;18.762;2023-08-30T05:51:15;99555.69;;;18.17;81.61
76460;BME280;65299;46.084;18.762;2023-08-30T05:54:16;99561.06;;;18.17;81.28
76460;BME280;65299;46.084;18.762;2023-08-30T05:57:16;99562.44;;;18.36;81.55
76460;BME280;65299;46.084;18.762;2023-08-30T06:00:17;99562.91;;;18.38;81.75
76460;BME280;65299;46.084;18.762;2023-08-30T06:03:18;99570.19;;;18.37;80.96
76460;BME280;65299;46.084;18.762;2023-08-30T06:06:18;99569.22;;;18.21;81.30
76460;BME280;65299;46.084;18.762;2023-08-30T06:09:18;99570.97;;;17.84;82.89
76460;BME280;65299;46.084;18.762;2023-08-30T06:12:19;99570.13;;;18.25;82.03
76460;BME280;65299;46.084;18.762;2023-08-30T06:15:19;99572.94;;;18.29;81.61
76460;BME280;65299;46.084;18.762;2023-08-30T06:18:20;99581.22;;;18.23;81.19
76460;BME280;65299;46.084;18.762;2023-08-30T06:21:20;99592.81;;;18.36;81.14
76460;BME280;65299;46.084;18.762;2023-08-30T06:24:22;99601.94;;;18.56;79.99
76460;BME280;65299;46.084;18.762;2023-08-30T06:27:23;99595.81;;;18.67;80.40
76460;BME280;65299;46.084;18.762;2023-08-30T06:30:30;99601.03;;;18.52;79.43
76460;BME280;65299;46.084;18.762;2023-08-30T06:33:30;99604.41;;;18.93;78.53
76460;BME280;65299;46.084;18.762;2023-08-30T06:36:31;99602.91;;;18.84;78.81
76460;BME280;65299;46.084;18.762;2023-08-30T06:39:34;99604.63;;;19.00;78.46
76460;BME280;65299;46.084;18.762;2023-08-30T06:42:36;99610.38;;;19.47;77.07
76460;BME280;65299;46.084;18.762;2023-08-30T06:45:44;99608.34;;;19.68;75.60
76460;BME280;65299;46.084;18.762;2023-08-30T06:48:44;99612.81;;;19.76;75.59
76460;BME280;65299;46.084;18.762;2023-08-30T06:51:45;99607.66;;;19.71;75.95
76460;BME280;65299;46.084;18.762;2023-08-30T06:54:45;99613.16;;;19.75;74.88
76460;BME280;65299;46.084;18.762;2023-08-30T06:57:47;99610.56;;;19.78;75.55
76460;BME280;65299;46.084;18.762;2023-08-30T07:00:48;99615.16;;;19.78;75.54
76460;BME280;65299;46.084;18.762;2023-08-30T07:03:48;99608.94;;;19.90;75.28
76460;BME280;65299;46.084;18.762;2023-08-30T07:06:49;99607.66;;;19.71;75.44
76460;BME280;65299;46.084;18.762;2023-08-30T07:09:50;99609.28;;;19.88;74.90
76460;BME280;65299;46.084;18.762;2023-08-30T07:12:50;99611.34;;;19.79;75.61
76460;BME280;65299;46.084;18.762;2023-08-30T07:15:50;99615.09;;;19.38;76.94
76460;BME280;65299;46.084;18.762;2023-08-30T07:18:51;99624.38;;;19.77;75.96
76460;BME280;65299;46.084;18.762;2023-08-30T07:21:51;99629.50;;;19.82;75.36
76460;BME280;65299;46.084;18.762;2023-08-30T07:24:52;99632.00;;;19.63;76.39
76460;BME280;65299;46.084;18.762;2023-08-30T07:27:52;99640.97;;;19.67;76.78
76460;BME280;65299;46.084;18.762;2023-08-30T07:31:04;99640.97;;;20.31;74.15
76460;BME280;65299;46.084;18.762;2023-08-30T07:34:04;99631.13;;;20.11;74.12
76460;BME280;65299;46.084;18.762;2023-08-30T07:37:05;99634.28;;;20.40;73.38
76460;BME280;65299;46.084;18.762;2023-08-30T07:40:06;99636.09;;;20.36;74.21
76460;BME280;65299;46.084;18.762;2023-08-30T07:43:07;99633.09;;;20.38;72.75
76460;BME280;65299;46.084;18.762;2023-08-30T07:46:07;99637.94;;;20.60;72.34
76460;BME280;65299;46.084;18.762;2023-08-30T07:49:08;99639.41;;;20.30;72.73
76460;BME280;65299;46.084;18.762;2023-08-30T07:52:08;99649.00;;;20.71;72.28
76460;BME280;65299;46.084;18.762;2023-08-30T07:55:11;99657.63;;;20.76;72.51
76460;BME280;65299;46.084;18.762;2023-08-30T07:58:11;99660.72;;;20.62;71.68
76460;BME280;65299;46.084;18.762;2023-08-30T08:01:11;99662.41;;;20.39;72.99
76460;BME280;65299;46.084;18.762;2023-08-30T08:04:12;99662.50;;;20.86;71.35
76460;BME280;65299;46.084;18.762;2023-08-30T08:07:12;99656.97;;;20.95;70.52
76460;BME280;65299;46.084;18.762;2023-08-30T08:10:13;99663.81;;;20.77;71.20
76460;BME280;65299;46.084;18.762;2023-08-30T08:13:13;99659.50;;;20.60;71.40
76460;BME280;65299;46.084;18.762;2023-08-30T08:16:14;99663.38;;;20.47;71.91
76460;BME280;65299;46.084;18.762;2023-08-30T08:19:14;99663.19;;;20.40;72.76
76460;BME280;65299;46.084;18.762;2023-08-30T08:22:15;99664.69;;;20.53;71.67
76460;BME280;65299;46.084;18.762;2023-08-30T08:25:16;99666.94;;;20.79;71.48
76460;BME280;65299;46.084;18.762;2023-08-30T08:28:16;99672.88;;;20.56;70.75
76460;BME280;65299;46.084;18.762;2023-08-30T08:31:17;99676.06;;;20.74;71.31
76460;BME280;65299;46.084;18.762;2023-08-30T08:34:18;99670.28;;;20.60;71.58
76460;BME280;65299;46.084;18.762;2023-08-30T08:37:18;99667.41;;;20.96;71.06
76460;BME280;65299;46.084;18.762;2023-08-30T08:40:18;99670.50;;;21.10;69.71
76460;BME280;65299;46.084;18.762;2023-08-30T08:43:19;99677.97;;;21.32;68.24
76460;BME280;65299;46.084;18.762;2023-08-30T08:46:21;99684.03;;;20.98;70.34
76460;BME280;65299;46.084;18.762;2023-08-30T08:49:21;99682.53;;;21.79;68.10
76460;BME280;65299;46.084;18.762;2023-08-30T08:52:25;99676.78;;;21.96;66.51
76460;BME280;65299;46.084;18.762;2023-08-30T08:55:26;99675.31;;;22.17;66.02
76460;BME280;65299;46.084;18.762;2023-08-30T08:58:30;99675.25;;;21.95;66.23
76460;BME280;65299;46.084;18.762;2023-08-30T09:01:31;99671.94;;;22.40;64.30
76460;BME280;65299;46.084;18.762;2023-08-30T09:04:33;99678.63;;;22.46;64.88
76460;BME280;65299;46.084;18.762;2023-08-30T09:07:34;99671.78;;;22.33;65.78
76460;BME280;65299;46.084;18.762;2023-08-30T09:10:36;99665.31;;;22.18;65.14
76460;BME280;65299;46.084;18.762;2023-08-30T09:13:36;99663.03;;;22.39;66.42
76460;BME280;65299;46.084;18.762;2023-08-30T09:16:37;99662.88;;;21.78;67.38
76460;BME280;65299;46.084;18.762;2023-08-30T09:19:37;99663.47;;;22.60;65.30
76460;BME280;65299;46.084;18.762;2023-08-30T09:22:41;99662.03;;;22.85;62.99
76460;BME280;65299;46.084;18.762;2023-08-30T09:25:44;99670.88;;;22.82;63.32
76460;BME280;65299;46.084;18.762;2023-08-30T09:28:44;99665.59;;;22.13;64.45
76460;BME280;65299;46.084;18.762;2023-08-30T09:31:45;99659.47;;;21.97;64.99
76460;BME280;65299;46.084;18.762;2023-08-30T09:34:46;99654.88;;;21.82;66.73
76460;BME280;65299;46.084;18.762;2023-08-30T09:37:47;99649.16;;;22.02;65.75
76460;BME280;65299;46.084;18.762;2023-08-30T09:40:48;99653.66;;;22.71;64.98
76460;BME280;65299;46.084;18.762;2023-08-30T09:43:48;99657.06;;;22.68;62.98
76460;BME280;65299;46.084;18.762;2023-08-30T09:46:53;99656.31;;;22.52;63.83
76460;BME280;65299;46.084;18.762;2023-08-30T09:49:55;99660.69;;;22.38;64.41
76460;BME280;65299;46.084;18.762;2023-08-30T09:52:56;99670.94;;;22.48;64.28
76460;BME280;65299;46.084;18.762;2023-08-30T09:55:57;99672.56;;;22.52;64.77
76460;BME280;65299;46.084;18.762;2023-08-30T09:58:59;99674.06;;;22.50;65.11
76460;BME280;65299;46.084;18.762;2023-08-30T10:02:01;99676.56;;;22.39;65.13
76460;BME280;65299;46.084;18.762;2023-08-30T10:05:02;99682.13;;;22.65;64.16
76460;BME280;65299;46.084;18.762;2023-08-30T10:08:07;99668.44;;;22.77;64.25
76460;BME280;65299;46.084;18.762;2023-08-30T10:11:09;99665.53;;;23.31;62.01
76460;BME280;65299;46.084;18.762;2023-08-30T10:14:12;99663.13;;;23.49;61.05
76460;BME280;65299;46.084;18.762;2023-08-30T10:17:14;99651.91;;;23.05;62.10
76460;BME280;65299;46.084;18.762;2023-08-30T10:20:19;99644.34;;;22.91;63.03
76460;BME280;65299;46.084;18.762;2023-08-30T10:23:21;99635.31;;;22.84;63.31
76460;BME280;65299;46.084;18.762;2023-08-30T10:26:27;99640.53;;;22.54;63.92
76460;BME280;65299;46.084;18.762;2023-08-30T10:29:30;99635.13;;;22.73;63.37
76460;BME280;65299;46.084;18.762;2023-08-30T10:32:31;99633.44;;;22.65;64.20
76460;BME280;65299;46.084;18.762;2023-08-30T10:35:32;99635.78;;;22.67;63.42
76460;BME280;65299;46.084;18.762;2023-08-30T10:38:33;99639.53;;;22.81;63.21
76460;BME280;65299;46.084;18.762;2023-08-30T10:41:33;99634.69;;;22.90;63.15
76460;BME280;65299;46.084;18.762;2023-08-30T10:44:34;99636.22;;;22.91;63.05
76460;BME280;65299;46.084;18.762;2023-08-30T10:47:35;99637.84;;;22.73;64.09
76460;BME280;65299;46.084;18.762;2023-08-30T10:50:37;99636.66;;;22.93;64.19
76460;BME280;65299;46.084;18.762;2023-08-30T10:53:38;99637.63;;;23.27;64.57
76460;BME280;65299;46.084;18.762;2023-08-30T11:03:11;99615.00;;;23.95;62.45
76460;BME280;65299;46.084;18.762;2023-08-30T11:06:14;99619.72;;;24.01;61.85
76460;BME280;65299;46.084;18.762;2023-08-30T11:09:20;99609.59;;;24.24;60.29
76460;BME280;65299;46.084;18.762;2023-08-30T11:12:21;99606.53;;;24.29;61.74
76460;BME280;65299;46.084;18.762;2023-08-30T11:15:26;99616.16;;;24.56;58.01
76460;BME280;65299;46.084;18.762;2023-08-30T11:18:27;99615.88;;;25.09;57.67
76460;BME280;65299;46.084;18.762;2023-08-30T11:21:27;99622.94;;;24.40;57.85
76460;BME280;65299;46.084;18.762;2023-08-30T11:24:28;99617.31;;;24.22;57.31
76460;BME280;65299;46.084;18.762;2023-08-30T11:27:28;99618.94;;;24.27;57.72
76460;BME280;65299;46.084;18.762;2023-08-30T11:30:28;99623.88;;;24.54;58.23
76460;BME280;65299;46.084;18.762;2023-08-30T11:33:29;99618.75;;;24.83;57.25
76460;BME280;65299;46.084;18.762;2023-08-30T11:36:31;99608.16;;;24.34;57.21
76460;BME280;65299;46.084;18.762;2023-08-30T11:39:31;99613.81;;;24.92;56.06
76460;BME280;65299;46.084;18.762;2023-08-30T11:42:32;99616.78;;;24.43;56.76
76460;BME280;65299;46.084;18.762;2023-08-30T11:45:33;99618.16;;;24.63;57.41
76460;BME280;65299;46.084;18.762;2023-08-30T11:48:35;99623.75;;;25.21;55.39
76460;BME280;65299;46.084;18.762;2023-08-30T11:51:36;99621.97;;;25.39;55.28
76460;BME280;65299;46.084;18.762;2023-08-30T11:54:37;99620.66;;;24.79;56.26
76460;BME280;65299;46.084;18.762;2023-08-30T11:57:38;99614.50;;;24.82;56.35
76460;BME280;65299;46.084;18.762;2023-08-30T12:00:38;99603.91;;;24.36;56.71
76460;BME280;65299;46.084;18.762;2023-08-30T12:03:40;99605.25;;;24.49;56.51
76460;BME280;65299;46.084;18.762;2023-08-30T12:06:41;99610.81;;;24.30;59.03
76460;BME280;65299;46.084;18.762;2023-08-30T12:09:41;99607.31;;;24.30;57.64
76460;BME280;65299;46.084;18.762;2023-08-30T12:12:45;99600.09;;;24.41;57.58
76460;BME280;65299;46.084;18.762;2023-08-30T12:15:46;99605.81;;;24.32;57.68
76460;BME280;65299;46.084;18.762;2023-08-30T12:18:46;99605.31;;;24.23;58.89
76460;BME280;65299;46.084;18.762;2023-08-30T12:21:47;99597.44;;;23.85;59.13
76460;BME280;65299;46.084;18.762;2023-08-30T12:24:47;99596.81;;;23.65;59.50
76460;BME280;65299;46.084;18.762;2023-08-30T12:27:48;99599.03;;;23.60;60.42
76460;BME280;65299;46.084;18.762;2023-08-30T12:30:48;99597.66;;;23.43;61.52
76460;BME280;65299;46.084;18.762;2023-08-30T12:33:49;99595.63;;;23.37;62.60
76460;BME280;65299;46.084;18.762;2023-08-30T12:36:49;99592.53;;;23.38;62.76
76460;BME280;65299;46.084;18.762;2023-08-30T12:39:49;99605.41;;;23.45;63.30
76460;BME280;65299;46.084;18.762;2023-08-30T12:42:50;99620.59;;;23.27;65.14
76460;BME280;65299;46.084;18.762;2023-08-30T12:45:50;99619.38;;;23.01;65.94
76460;BME280;65299;46.084;18.762;2023-08-30T12:48:51;99616.97;;;23.42;65.75
76460;BME280;65299;46.084;18.762;2023-08-30T12:51:51;99606.75;;;23.84;65.89
76460;BME280;65299;46.084;18.762;2023-08-30T12:54:52;99598.13;;;23.49;66.15
76460;BME280;65299;46.084;18.762;2023-08-30T12:57:54;99601.13;;;23.44;65.48
76460;BME280;65299;46.084;18.762;2023-08-30T13:00:54;99619.19;;;23.36;69.07
76460;BME280;65299;46.084;18.762;2023-08-30T13:03:54;99614.41;;;23.78;66.46
76460;BME280;65299;46.084;18.762;2023-08-30T13:06:55;99607.69;;;23.99;64.44
76460;BME280;65299;46.084;18.762;2023-08-30T13:09:55;99607.47;;;23.81;66.76
76460;BME280;65299;46.084;18.762;2023-08-30T13:12:56;99624.28;;;23.94;67.13
76460;BME280;65299;46.084;18.762;2023-08-30T13:15:57;99625.06;;;23.94;67.21
76460;BME280;65299;46.084;18.762;2023-08-30T13:18:57;99616.84;;;23.87;66.30
76460;BME280;65299;46.084;18.762;2023-08-30T13:21:58;99608.72;;;23.87;65.22
76460;BME280;65299;46.084;18.762;2023-08-30T13:24:58;99604.34;;;23.79;68.85
76460;BME280;65299;46.084;18.762;2023-08-30T13:27:59;99597.41;;;23.81;67.60
76460;BME280;65299;46.084;18.762;2023-08-30T13:30:59;99610.78;;;23.41;69.60
76460;BME280;65299;46.084;18.762;2023-08-30T13:34:00;99621.19;;;23.17;69.69
76460;BME280;65299;46.084;18.762;2023-08-30T13:37:01;99629.13;;;23.06;69.92
76460;BME280;65299;46.084;18.762;2023-08-30T13:40:01;99639.06;;;22.98;72.44
76460;BME280;65299;46.084;18.762;2023-08-30T13:43:01;99623.84;;;22.68;74.41
76460;BME280;65299;46.084;18.762;2023-08-30T13:46:03;99618.47;;;22.52;76.02
76460;BME280;65299;46.084;18.762;2023-08-30T13:49:04;99610.88;;;22.19;72.99
76460;BME280;65299;46.084;18.762;2023-08-30T13:52:05;99617.50;;;22.22;72.33
76460;BME280;65299;46.084;18.762;2023-08-30T13:55:06;99614.50;;;22.08;71.54
76460;BME280;65299;46.084;18.762;2023-08-30T13:58:07;99618.84;;;22.12;72.00
76460;BME280;65299;46.084;18.762;2023-08-30T14:01:07;99620.19;;;21.84;74.03
76460;BME280;65299;46.084;18.762;2023-08-30T14:04:08;99618.13;;;21.46;75.58
76460;BME280;65299;46.084;18.762;2023-08-30T14:07:09;99623.78;;;21.57;76.93
76460;BME280;65299;46.084;18.762;2023-08-30T14:10:10;99628.16;;;21.45;76.03
76460;BME280;65299;46.084;18.762;2023-08-30T14:13:11;99627.88;;;21.51;76.09
76460;BME280;65299;46.084;18.762;2023-08-30T14:16:11;99636.94;;;21.42;76.78
76460;BME280;65299;46.084;18.762;2023-08-30T14:19:12;99639.22;;;21.40;79.20
76460;BME280;65299;46.084;18.762;2023-08-30T14:22:12;99636.41;;;21.53;78.11
76460;BME280;65299;46.084;18.762;2023-08-30T14:25:13;99646.53;;;21.56;77.00
76460;BME280;65299;46.084;18.762;2023-08-30T14:28:13;99645.47;;;21.44;76.99
76460;BME280;65299;46.084;18.762;2023-08-30T14:31:13;99655.84;;;21.42;76.94
76460;BME280;65299;46.084;18.762;2023-08-30T14:34:14;99659.16;;;21.52;77.09
76460;BME280;65299;46.084;18.762;2023-08-30T14:37:15;99656.91;;;21.54;77.79
76460;BME280;65299;46.084;18.762;2023-08-30T14:40:15;99652.78;;;21.44;78.07
76460;BME280;65299;46.084;18.762;2023-08-30T14:43:16;99646.16;;;21.57;77.28
76460;BME280;65299;46.084;18.762;2023-08-30T14:46:16;99646.09;;;21.54;79.00
76460;BME280;65299;46.084;18.762;2023-08-30T14:49:19;99655.47;;;21.75;77.42
76460;BME280;65299;46.084;18.762;2023-08-30T14:52:20;99658.38;;;22.01;77.35
76460;BME280;65299;46.084;18.762;2023-08-30T14:55:20;99648.50;;;22.85;73.84
76460;BME280;65299;46.084;18.762;2023-08-30T14:58:21;99651.41;;;23.19;69.18
76460;BME280;65299;46.084;18.762;2023-08-30T15:01:22;99652.88;;;23.61;68.36
76460;BME280;65299;46.084;18.762;2023-08-30T15:04:23;99646.88;;;23.75;65.78
76460;BME280;65299;46.084;18.762;2023-08-30T15:07:23;99650.34;;;24.02;64.15
76460;BME280;65299;46.084;18.762;2023-08-30T15:10:24;99641.63;;;25.22;58.53
76460;BME280;65299;46.084;18.762;2023-08-30T15:13:24;99638.50;;;26.50;54.08
76460;BME280;65299;46.084;18.762;2023-08-30T15:16:24;99636.34;;;27.36;53.24
76460;BME280;65299;46.084;18.762;2023-08-30T15:19:25;99635.50;;;27.67;52.67
76460;BME280;65299;46.084;18.762;2023-08-30T15:22:25;99635.09;;;27.72;51.73
76460;BME280;65299;46.084;18.762;2023-08-30T15:25:26;99621.41;;;28.01;49.00
76460;BME280;65299;46.084;18.762;2023-08-30T15:28:26;99631.66;;;27.51;50.63
76460;BME280;65299;46.084;18.762;2023-08-30T15:31:26;99629.28;;;27.56;50.21
76460;BME280;65299;46.084;18.762;2023-08-30T15:34:27;99628.50;;;27.21;50.53
76460;BME280;65299;46.084;18.762;2023-08-30T15:37:27;99632.38;;;27.65;49.61
76460;BME280;65299;46.084;18.762;2023-08-30T15:40:28;99631.34;;;28.46;46.46
76460;BME280;65299;46.084;18.762;2023-08-30T15:43:28;99640.22;;;27.53;49.83
76460;BME280;65299;46.084;18.762;2023-08-30T15:46:29;99635.28;;;28.38;48.98
76460;BME280;65299;46.084;18.762;2023-08-30T15:49:29;99632.78;;;27.00;50.15
76460;BME280;65299;46.084;18.762;2023-08-30T15:52:30;99634.34;;;25.91;52.96
76460;BME280;65299;46.084;18.762;2023-08-30T15:55:30;99631.41;;;26.20;53.63